Información del aeropuerto LEMI

Información de pista
Frecuencias del aeropuerto
Radioayudas del aeropuerto
Información meteorológica del aeropuerto y NOTAM
ADDS - METARS form results

(2229 UTC 08 May 2021)
Data provider http://aviationweather.gov/metar/data/
 
METAR text: LEMI 082200Z AUTO 30003KT CAVOK 17/09 Q1013
Conditions at: LEMI (MURCIA , ES) observed 2200 UTC 08 May 2021
Temperature: 17.0°C (63°F)
Dewpoint: 9.0°C (48°F) [RH = 59%]
Pressure (altimeter): 29.91 inches Hg (1013.0 mb)
Winds: from the WNW (300 degrees) at 3 MPH (3 knots; 1.5 m/s)
Visibility: 6 or more miles (10+ km)
Ceiling: ceiling and visibility are OK
Clouds: unknown
Weather: no significant weather observed at this time

METAR text: LEMI 082130Z AUTO 32004KT CAVOK 18/09 Q1013
Conditions at: LEMI (MURCIA , ES) observed 2130 UTC 08 May 2021
Temperature: 18.0°C (64°F)
Dewpoint: 9.0°C (48°F) [RH = 56%]
Pressure (altimeter): 29.91 inches Hg (1013.0 mb)
Winds: from the NW (320 degrees) at 5 MPH (4 knots; 2.1 m/s)
Visibility: 6 or more miles (10+ km)
Ceiling: ceiling and visibility are OK
Clouds: unknown
Weather: no significant weather observed at this time